Time;durP1;ratioP1;P1;durP2;ratioP2;P2;SDS_P1;SDS_P2;PMS_P1;PMS_P2;Temp;Humidity;BMP_temperature;BMP_pressure;BME280_temperature;BME280_humidity;BME280_pressure;Samples;Min_cycle;Max_cycle;Signal;HPM_P1;HPM_P2
2021/12/21 00:01:53;;;;;;;28.33;17.10;;;;;;;;;;5120623;27;20507;-38
2021/12/21 00:04:18;;;;;;;47.20;35.38;;;;;;;;;;5115993;27;20103;-39
2021/12/21 00:06:44;;;;;;;36.42;27.05;;;;;;;;;;5121074;27;20015;-39
2021/12/21 00:09:09;;;;;;;38.60;26.85;;;;;;;;;;5116823;27;20512;-43
2021/12/21 00:11:35;;;;;;;44.45;28.48;;;;;;;;;;5118032;27;20095;-40
2021/12/21 00:14:16;;;;;;;31.17;27.00;;;;;;;;;;5118939;27;20491;-40
2021/12/21 00:17:10;;;;;;;33.83;26.17;;;;;;;;;;5119050;27;20098;-42
2021/12/21 00:20:28;;;;;;;34.20;25.17;;;;;;;;;;5116738;27;20117;-38
2021/12/21 00:25:02;;;;;;;18.73;15.75;;;;;;;;;;5076137;27;20080;-40
2021/12/21 00:27:27;;;;;;;29.23;17.08;;;;;;;;;;5117356;27;20016;-39
2021/12/21 00:29:52;;;;;;;25.25;17.98;;;;;;;;;;5119960;27;20559;-41
2021/12/21 00:32:17;;;;;;;62.38;35.95;;;;;;;;;;5116234;27;20405;-40
2021/12/21 00:34:43;;;;;;;44.70;28.45;;;;;;;;;;5120030;27;20015;-42
2021/12/21 00:37:08;;;;;;;34.05;25.13;;;;;;;;;;5117695;27;20090;-46
2021/12/21 00:39:33;;;;;;;30.65;19.63;;;;;;;;;;5116017;27;20045;-41
2021/12/21 00:42:01;;;;;;;28.33;17.77;;;;;;;;;;5114939;27;20069;-41
2021/12/21 00:44:26;;;;;;;36.42;22.92;;;;;;;;;;5117709;27;20023;-39
2021/12/21 00:46:51;;;;;;;32.28;27.63;;;;;;;;;;5118576;27;20067;-40
2021/12/21 00:49:17;;;;;;;36.35;28.30;;;;;;;;;;5118356;27;20430;-38
2021/12/21 00:51:43;;;;;;;51.80;30.02;;;;;;;;;;5116623;27;20392;-41
2021/12/21 00:54:09;;;;;;;40.17;24.40;;;;;;;;;;5116094;27;20041;-38
2021/12/21 00:56:35;;;;;;;30.95;26.75;;;;;;;;;;5114786;27;20763;-40
2021/12/21 00:59:00;;;;;;;28.05;25.35;;;;;;;;;;5116275;27;20034;-39
2021/12/21 01:01:25;;;;;;;27.23;24.30;;;;;;;;;;5117150;27;20023;-38
2021/12/21 01:03:53;;;;;;;47.15;32.08;;;;;;;;;;5116898;27;20012;-41
2021/12/21 01:11:38;;;;;;;24.45;18.58;;;;;;;;;;5116152;27;20022;-38
2021/12/21 01:17:01;;;;;;;17.15;13.18;;;;;;;;;;5116988;27;20482;-39
2021/12/21 01:19:35;;;;;;;25.55;16.23;;;;;;;;;;5119187;27;20087;-39
2021/12/21 01:24:47;;;;;;;18.58;13.45;;;;;;;;;;5118428;27;20027;-41
2021/12/21 01:38:19;;;;;;;9.63;6.43;;;;;;;;;;5114484;27;20027;-38
2021/12/21 01:42:52;;;;;;;4.43;3.38;;;;;;;;;;5115596;27;20031;-41
2021/12/21 01:50:50;;;;;;;3.25;1.77;;;;;;;;;;5115292;27;20083;-41
2021/12/21 01:53:15;;;;;;;8.40;2.33;;;;;;;;;;5113046;27;20472;-39
2021/12/21 01:55:42;;;;;;;6.80;3.25;;;;;;;;;;5115009;27;20053;-41
2021/12/21 01:58:08;;;;;;;4.20;1.88;;;;;;;;;;5114239;27;20062;-39
2021/12/21 02:00:33;;;;;;;8.07;1.77;;;;;;;;;;5119588;27;20417;-39
2021/12/21 02:02:58;;;;;;;5.25;1.50;;;;;;;;;;5115799;27;20483;-44
2021/12/21 02:05:24;;;;;;;1.85;1.48;;;;;;;;;;5118241;27;20019;-39
2021/12/21 02:07:49;;;;;;;3.55;2.08;;;;;;;;;;5117614;27;20084;-38
2021/12/21 02:10:14;;;;;;;19.75;3.03;;;;;;;;;;5117694;27;20617;-40
2021/12/21 02:12:40;;;;;;;5.30;3.00;;;;;;;;;;5116159;27;20073;-39
2021/12/21 02:15:05;;;;;;;4.80;0.82;;;;;;;;;;5115449;27;20057;-39
2021/12/21 02:22:53;;;;;;;7.35;4.35;;;;;;;;;;5118178;27;20027;-39
2021/12/21 02:28:09;;;;;;;5.53;3.25;;;;;;;;;;5118161;27;20068;-41
2021/12/21 02:30:36;;;;;;;7.65;4.15;;;;;;;;;;5117057;27;20055;-39
2021/12/21 02:33:02;;;;;;;3.08;2.45;;;;;;;;;;5118684;27;20498;-41
2021/12/21 02:35:27;;;;;;;10.38;2.50;;;;;;;;;;5116230;27;20023;-39
2021/12/21 02:37:52;;;;;;;2.92;2.17;;;;;;;;;;5115684;27;20027;-39
2021/12/21 02:40:18;;;;;;;7.43;2.92;;;;;;;;;;5115876;27;20039;-41
2021/12/21 02:42:43;;;;;;;6.18;1.55;;;;;;;;;;5114070;27;20538;-41
2021/12/21 02:45:08;;;;;;;8.27;1.92;;;;;;;;;;5114705;27;20101;-39
2021/12/21 02:47:34;;;;;;;3.58;1.98;;;;;;;;;;5114681;27;20019;-38
2021/12/21 02:49:59;;;;;;;2.67;1.20;;;;;;;;;;5114710;28;20019;-41
2021/12/21 02:52:25;;;;;;;11.52;1.50;;;;;;;;;;5113556;28;20022;-38
2021/12/21 02:54:51;;;;;;;1.60;1.35;;;;;;;;;;5114585;28;20557;-40
2021/12/21 02:57:16;;;;;;;5.32;1.02;;;;;;;;;;5115043;28;20535;-39
2021/12/21 02:59:41;;;;;;;3.50;1.80;;;;;;;;;;5116851;28;20046;-40
2021/12/21 03:02:07;;;;;;;2.88;1.45;;;;;;;;;;5120805;28;20388;-41
2021/12/21 03:04:32;;;;;;;4.53;2.70;;;;;;;;;;5115924;28;20118;-39
2021/12/21 03:09:54;;;;;;;7.97;1.92;;;;;;;;;;5117801;27;20069;-43
2021/12/21 03:14:47;;;;;;;6.03;1.98;;;;;;;;;;5118799;27;20070;-40
2021/12/21 03:17:13;;;;;;;5.57;2.20;;;;;;;;;;5118568;27;20445;-39
2021/12/21 03:19:38;;;;;;;6.45;1.45;;;;;;;;;;5118467;27;20073;-42
2021/12/21 03:22:04;;;;;;;6.45;1.95;;;;;;;;;;5120318;27;20038;-38
2021/12/21 03:24:30;;;;;;;4.47;1.30;;;;;;;;;;5120674;27;20011;-42
2021/12/21 03:26:56;;;;;;;5.43;1.13;;;;;;;;;;5116886;27;20038;-39
2021/12/21 03:29:21;;;;;;;1.52;0.88;;;;;;;;;;5120275;27;20028;-42
2021/12/21 03:31:46;;;;;;;7.40;1.13;;;;;;;;;;5121044;27;20043;-40
2021/12/21 03:34:12;;;;;;;3.40;1.75;;;;;;;;;;5118891;27;20019;-38
2021/12/21 03:36:38;;;;;;;3.90;2.42;;;;;;;;;;5122976;27;20023;-42
2021/12/21 03:39:09;;;;;;;4.97;1.95;;;;;;;;;;5117000;27;20019;-40
2021/12/21 03:41:39;;;;;;;5.55;1.20;;;;;;;;;;5121251;27;20024;-39
2021/12/21 03:44:07;;;;;;;3.63;1.40;;;;;;;;;;5124128;27;20063;-42
2021/12/21 03:46:32;;;;;;;6.70;1.80;;;;;;;;;;5113504;27;20395;-41
2021/12/21 03:49:03;;;;;;;2.15;1.25;;;;;;;;;;5118617;27;20026;-40
2021/12/21 03:51:29;;;;;;;4.20;1.95;;;;;;;;;;5115028;27;20142;-39
2021/12/21 03:53:54;;;;;;;5.78;2.47;;;;;;;;;;5117544;27;20546;-40
2021/12/21 03:56:39;;;;;;;12.00;1.45;;;;;;;;;;5114570;27;20056;-42
2021/12/21 03:59:04;;;;;;;4.82;1.60;;;;;;;;;;5116723;27;20096;-44
2021/12/21 04:01:30;;;;;;;9.43;2.03;;;;;;;;;;5118126;27;20593;-42
2021/12/21 04:03:55;;;;;;;3.80;1.45;;;;;;;;;;5118142;27;20016;-40
2021/12/21 04:06:20;;;;;;;6.65;2.63;;;;;;;;;;5120809;27;20110;-40
2021/12/21 04:08:46;;;;;;;3.35;2.08;;;;;;;;;;5118850;27;20023;-39
2021/12/21 04:11:11;;;;;;;3.92;1.20;;;;;;;;;;5116847;27;20072;-43
2021/12/21 04:13:36;;;;;;;4.75;1.83;;;;;;;;;;5118185;27;20064;-43
2021/12/21 04:16:04;;;;;;;2.47;1.33;;;;;;;;;;5114371;27;20041;-39
2021/12/21 04:18:34;;;;;;;10.05;3.20;;;;;;;;;;5116742;27;20024;-40
2021/12/21 04:21:00;;;;;;;9.43;2.78;;;;;;;;;;5116658;27;20051;-38
2021/12/21 04:23:25;;;;;;;10.80;2.35;;;;;;;;;;5119872;27;20548;-38
2021/12/21 04:25:50;;;;;;;3.22;1.33;;;;;;;;;;5116310;27;20308;-38
2021/12/21 04:28:15;;;;;;;3.22;2.65;;;;;;;;;;5119369;27;20343;-37
2021/12/21 04:30:41;;;;;;;6.13;1.63;;;;;;;;;;5116944;27;20150;-38
2021/12/21 04:33:06;;;;;;;6.07;1.27;;;;;;;;;;5117701;27;20027;-40
2021/12/21 04:35:31;;;;;;;2.72;1.33;;;;;;;;;;5117761;27;20071;-38
2021/12/21 04:38:12;;;;;;;7.22;1.90;;;;;;;;;;5118664;27;20023;-46
2021/12/21 04:40:42;;;;;;;3.67;1.92;;;;;;;;;;5120278;27;20027;-38
2021/12/21 04:43:07;;;;;;;3.90;1.13;;;;;;;;;;5116275;27;20035;-41
2021/12/21 04:45:33;;;;;;;5.85;2.60;;;;;;;;;;5120294;27;20015;-39
2021/12/21 04:47:58;;;;;;;7.32;1.20;;;;;;;;;;5115958;27;20098;-42
2021/12/21 04:50:23;;;;;;;1.45;0.82;;;;;;;;;;5113185;27;20070;-39
2021/12/21 04:52:49;;;;;;;0.93;0.60;;;;;;;;;;5112422;27;20574;-37
2021/12/21 04:55:14;;;;;;;1.95;1.10;;;;;;;;;;5116728;27;20026;-41
2021/12/21 04:57:41;;;;;;;6.10;2.03;;;;;;;;;;5116590;27;20046;-38
2021/12/21 05:00:07;;;;;;;6.95;1.77;;;;;;;;;;5117229;27;20068;-38
2021/12/21 05:02:33;;;;;;;2.88;1.45;;;;;;;;;;5114130;27;20103;-39
2021/12/21 05:04:58;;;;;;;5.00;1.70;;;;;;;;;;5117181;27;20102;-43
2021/12/21 05:07:26;;;;;;;8.00;1.73;;;;;;;;;;5114362;27;20020;-39
2021/12/21 05:09:57;;;;;;;7.22;2.05;;;;;;;;;;5119693;27;20020;-37
2021/12/21 05:12:22;;;;;;;6.85;1.17;;;;;;;;;;5114729;27;20096;-39
2021/12/21 05:14:47;;;;;;;7.53;1.45;;;;;;;;;;5115895;27;20023;-41
2021/12/21 05:17:13;;;;;;;6.32;2.05;;;;;;;;;;5117104;27;20464;-41
2021/12/21 05:19:38;;;;;;;1.83;1.25;;;;;;;;;;5117084;27;20042;-38
2021/12/21 05:22:04;;;;;;;7.60;1.70;;;;;;;;;;5117436;27;20020;-39
2021/12/21 05:24:29;;;;;;;3.05;2.15;;;;;;;;;;5113916;27;20011;-39
2021/12/21 05:26:54;;;;;;;1.70;1.17;;;;;;;;;;5118080;27;20488;-40
2021/12/21 05:29:20;;;;;;;4.00;2.13;;;;;;;;;;5116481;27;20023;-39
2021/12/21 05:31:45;;;;;;;5.95;1.90;;;;;;;;;;5117508;27;20730;-41
2021/12/21 05:34:11;;;;;;;5.18;2.53;;;;;;;;;;5116281;27;20135;-39
2021/12/21 05:36:36;;;;;;;6.85;3.33;;;;;;;;;;5114929;27;20038;-39
2021/12/21 05:39:05;;;;;;;17.70;4.90;;;;;;;;;;5115182;27;20122;-38
2021/12/21 05:41:47;;;;;;;4.65;4.25;;;;;;;;;;5116152;27;20128;-38
2021/12/21 05:44:13;;;;;;;9.68;3.20;;;;;;;;;;5114232;27;20024;-39
2021/12/21 05:46:38;;;;;;;5.15;2.72;;;;;;;;;;5114289;27;20135;-42
2021/12/21 05:49:03;;;;;;;3.35;2.20;;;;;;;;;;5116171;27;20208;-39
2021/12/21 05:51:29;;;;;;;5.40;3.08;;;;;;;;;;5115880;27;20472;-40
2021/12/21 05:53:54;;;;;;;5.32;2.40;;;;;;;;;;5113337;27;20080;-38
2021/12/21 05:56:19;;;;;;;5.38;1.77;;;;;;;;;;5115396;27;20679;-38
2021/12/21 05:58:45;;;;;;;3.20;2.88;;;;;;;;;;5114995;27;20028;-40
2021/12/21 06:01:10;;;;;;;3.28;1.73;;;;;;;;;;5118222;27;20695;-38
2021/12/21 06:03:35;;;;;;;3.03;1.77;;;;;;;;;;5113545;27;20019;-38
2021/12/21 06:06:01;;;;;;;5.90;2.42;;;;;;;;;;5112104;27;20038;-38
2021/12/21 06:08:26;;;;;;;7.30;3.60;;;;;;;;;;5114167;27;20072;-43
2021/12/21 06:10:54;;;;;;;4.47;2.25;;;;;;;;;;5115346;27;20472;-40
2021/12/21 06:16:20;;;;;;;5.13;4.32;;;;;;;;;;5115553;27;20026;-42
2021/12/21 06:26:49;;;;;;;5.40;2.33;;;;;;;;;;5114556;27;20050;-38
2021/12/21 06:29:14;;;;;;;6.30;3.90;;;;;;;;;;5116181;27;20024;-39
2021/12/21 06:31:40;;;;;;;5.20;3.20;;;;;;;;;;5117763;27;20019;-42
2021/12/21 06:34:05;;;;;;;6.28;5.63;;;;;;;;;;5112345;27;20460;-39
2021/12/21 06:36:31;;;;;;;7.90;3.10;;;;;;;;;;5115603;27;20012;-39
2021/12/21 06:38:58;;;;;;;10.88;4.50;;;;;;;;;;5115687;27;20015;-40
2021/12/21 06:41:23;;;;;;;9.57;4.65;;;;;;;;;;5112655;28;20106;-41
2021/12/21 06:43:48;;;;;;;18.83;9.68;;;;;;;;;;5115451;27;20194;-43
2021/12/21 06:51:47;;;;;;;11.27;5.57;;;;;;;;;;5116624;28;20034;-43
2021/12/21 06:54:13;;;;;;;11.13;8.55;;;;;;;;;;5112715;28;20083;-38
2021/12/21 06:56:38;;;;;;;13.88;9.63;;;;;;;;;;5114819;28;20471;-38
2021/12/21 06:59:03;;;;;;;11.90;6.85;;;;;;;;;;5117842;28;20024;-39
2021/12/21 07:01:29;;;;;;;8.75;5.22;;;;;;;;;;5113674;28;20049;-40
2021/12/21 07:03:54;;;;;;;6.82;4.97;;;;;;;;;;5118805;28;20024;-38
2021/12/21 07:06:20;;;;;;;14.40;10.73;;;;;;;;;;5114143;28;20119;-39
2021/12/21 07:08:59;;;;;;;16.65;12.18;;;;;;;;;;5113802;28;20381;-42
2021/12/21 07:11:37;;;;;;;9.55;6.53;;;;;;;;;;5110030;28;20449;-41
2021/12/21 07:19:31;;;;;;;6.00;3.90;;;;;;;;;;5110473;28;20038;-39
2021/12/21 07:21:57;;;;;;;3.08;2.25;;;;;;;;;;5112397;28;20028;-41
2021/12/21 07:24:22;;;;;;;7.03;4.75;;;;;;;;;;5112694;28;20028;-43
2021/12/21 07:26:48;;;;;;;9.57;6.85;;;;;;;;;;5117131;28;20048;-42
2021/12/21 07:29:13;;;;;;;5.85;4.78;;;;;;;;;;5097878;28;20051;-39
2021/12/21 07:31:39;;;;;;;7.38;4.90;;;;;;;;;;5114975;28;20019;-40
2021/12/21 07:34:04;;;;;;;8.50;6.35;;;;;;;;;;5115781;28;20026;-38
2021/12/21 07:36:31;;;;;;;14.55;9.93;;;;;;;;;;5114084;28;20027;-38
2021/12/21 07:38:57;;;;;;;10.23;9.15;;;;;;;;;;5113747;28;20023;-41
2021/12/21 07:41:22;;;;;;;16.27;8.50;;;;;;;;;;5115693;28;20492;-40
2021/12/21 07:43:48;;;;;;;14.32;10.32;;;;;;;;;;5109800;28;20096;-39
2021/12/21 07:46:13;;;;;;;22.38;9.02;;;;;;;;;;5112387;28;20370;-40
2021/12/21 07:48:40;;;;;;;21.52;9.82;;;;;;;;;;5113487;28;20027;-41
2021/12/21 07:51:07;;;;;;;14.80;10.18;;;;;;;;;;5114777;28;20023;-41
2021/12/21 07:53:32;;;;;;;34.65;8.55;;;;;;;;;;5115723;28;20465;-39
2021/12/21 07:56:02;;;;;;;22.00;10.23;;;;;;;;;;5114728;27;20506;-40
2021/12/21 07:58:29;;;;;;;14.15;7.88;;;;;;;;;;5116795;27;20035;-40
2021/12/21 08:00:54;;;;;;;12.10;7.75;;;;;;;;;;5118781;27;20023;-41
2021/12/21 08:03:20;;;;;;;16.25;14.52;;;;;;;;;;5118868;27;20015;-43
2021/12/21 08:05:49;;;;;;;18.77;11.35;;;;;;;;;;5119664;27;20485;-39
2021/12/21 08:08:18;;;;;;;30.42;14.90;;;;;;;;;;5117670;27;20016;-43
2021/12/21 08:10:52;;;;;;;54.97;39.63;;;;;;;;;;5118826;27;20023;-38
2021/12/21 08:13:18;;;;;;;91.30;75.65;;;;;;;;;;5119242;27;20099;-38
2021/12/21 08:15:43;;;;;;;87.50;67.25;;;;;;;;;;5120589;27;20384;-39
2021/12/21 08:18:09;;;;;;;96.78;71.57;;;;;;;;;;5117302;27;20023;-40
2021/12/21 08:20:35;;;;;;;79.93;67.35;;;;;;;;;;5120767;27;20047;-39
2021/12/21 08:23:00;;;;;;;83.85;61.92;;;;;;;;;;5117556;27;20508;-38
2021/12/21 08:25:28;;;;;;;64.97;51.03;;;;;;;;;;5116461;27;20047;-39
2021/12/21 08:27:54;;;;;;;57.25;50.35;;;;;;;;;;5114665;27;20014;-38
2021/12/21 08:30:20;;;;;;;54.95;45.78;;;;;;;;;;5118225;27;20483;-41
2021/12/21 08:32:45;;;;;;;54.00;39.72;;;;;;;;;;5117614;27;20019;-42
2021/12/21 08:35:13;;;;;;;73.10;46.33;;;;;;;;;;5116365;27;20050;-44
2021/12/21 08:37:39;;;;;;;48.22;38.67;;;;;;;;;;5116240;27;20027;-38
2021/12/21 08:40:07;;;;;;;36.83;32.00;;;;;;;;;;5116777;27;20391;-39
2021/12/21 08:42:35;;;;;;;51.70;34.83;;;;;;;;;;5114995;27;20073;-41
2021/12/21 08:45:06;;;;;;;50.97;37.00;;;;;;;;;;5118033;27;20011;-41
2021/12/21 08:47:31;;;;;;;62.10;34.53;;;;;;;;;;5117630;27;20033;-40
2021/12/21 08:49:56;;;;;;;39.67;32.70;;;;;;;;;;5118551;27;20023;-40
2021/12/21 08:52:22;;;;;;;43.42;35.72;;;;;;;;;;5117436;27;20122;-40
2021/12/21 08:54:47;;;;;;;58.55;47.65;;;;;;;;;;5116990;27;20054;-41
2021/12/21 08:57:12;;;;;;;79.97;54.95;;;;;;;;;;5116724;27;20034;-41
2021/12/21 08:59:38;;;;;;;60.63;46.03;;;;;;;;;;5115758;27;20027;-39
2021/12/21 09:02:03;;;;;;;60.05;44.97;;;;;;;;;;5118113;27;20032;-38
2021/12/21 09:04:29;;;;;;;49.33;44.13;;;;;;;;;;5117433;27;20023;-40
2021/12/21 09:06:54;;;;;;;60.20;46.08;;;;;;;;;;5116251;27;20024;-41
2021/12/21 09:09:20;;;;;;;59.53;47.45;;;;;;;;;;5117172;27;20111;-43
2021/12/21 09:11:49;;;;;;;52.83;45.13;;;;;;;;;;5112875;27;20063;-42
2021/12/21 09:14:14;;;;;;;47.00;42.15;;;;;;;;;;5111294;27;20073;-40
2021/12/21 09:16:40;;;;;;;63.42;47.35;;;;;;;;;;5110172;27;20033;-39
2021/12/21 09:19:05;;;;;;;52.08;45.47;;;;;;;;;;5117627;27;20506;-40
2021/12/21 09:21:31;;;;;;;63.28;45.28;;;;;;;;;;5113630;27;20795;-41
2021/12/21 09:23:56;;;;;;;64.10;52.42;;;;;;;;;;5109567;27;20084;-43
2021/12/21 09:26:22;;;;;;;58.25;46.38;;;;;;;;;;5114686;27;20638;-41
2021/12/21 09:28:47;;;;;;;67.35;46.28;;;;;;;;;;5111313;27;20701;-43
2021/12/21 09:31:12;;;;;;;59.28;42.10;;;;;;;;;;5115314;27;20115;-43
2021/12/21 09:33:38;;;;;;;50.92;42.03;;;;;;;;;;5111549;27;20022;-41
2021/12/21 09:36:03;;;;;;;49.40;40.83;;;;;;;;;;5116297;27;20034;-42
2021/12/21 09:38:29;;;;;;;77.65;61.70;;;;;;;;;;5115902;27;20015;-44
2021/12/21 09:40:55;;;;;;;87.72;77.40;;;;;;;;;;5112451;27;20503;-40
2021/12/21 09:43:20;;;;;;;105.00;70.18;;;;;;;;;;5112857;27;20034;-42
2021/12/21 09:45:46;;;;;;;63.78;53.00;;;;;;;;;;5114149;27;20187;-40
2021/12/21 09:48:11;;;;;;;66.72;47.40;;;;;;;;;;5110094;27;20027;-39
2021/12/21 09:50:36;;;;;;;58.40;40.22;;;;;;;;;;5110078;27;20020;-40
2021/12/21 09:53:02;;;;;;;39.38;33.90;;;;;;;;;;5113960;27;20019;-41
2021/12/21 09:55:29;;;;;;;41.13;26.02;;;;;;;;;;5106584;27;20126;-42
2021/12/21 09:57:55;;;;;;;37.05;24.40;;;;;;;;;;5112984;27;20491;-41
2021/12/21 10:00:25;;;;;;;35.55;25.45;;;;;;;;;;5110209;27;20027;-42
2021/12/21 10:02:51;;;;;;;33.83;26.33;;;;;;;;;;5114688;27;20034;-41
2021/12/21 10:05:18;;;;;;;37.40;24.98;;;;;;;;;;5111375;27;20510;-42
2021/12/21 10:07:53;;;;;;;39.08;24.75;;;;;;;;;;5110419;27;20167;-42
2021/12/21 10:10:21;;;;;;;24.95;19.83;;;;;;;;;;5110283;27;20091;-41
2021/12/21 10:12:46;;;;;;;29.42;17.67;;;;;;;;;;5111593;27;20027;-41
2021/12/21 10:15:16;;;;;;;27.48;15.93;;;;;;;;;;5115854;27;20019;-43
2021/12/21 10:17:57;;;;;;;19.20;12.48;;;;;;;;;;5110426;27;20115;-40
2021/12/21 10:20:49;;;;;;;42.72;19.08;;;;;;;;;;5111375;27;20056;-45
2021/12/21 10:23:14;;;;;;;27.67;17.02;;;;;;;;;;5104545;27;20123;-44
2021/12/21 10:25:49;;;;;;;21.05;14.32;;;;;;;;;;5096440;28;20599;-42
2021/12/21 10:28:33;;;;;;;27.67;19.75;;;;;;;;;;5112366;27;20019;-43
2021/12/21 10:31:00;;;;;;;26.20;14.80;;;;;;;;;;5111304;27;20734;-42
2021/12/21 10:33:26;;;;;;;27.35;18.42;;;;;;;;;;5096320;27;20023;-43
2021/12/21 10:35:53;;;;;;;42.65;18.55;;;;;;;;;;5114679;27;20304;-44
2021/12/21 10:38:28;;;;;;;46.28;23.55;;;;;;;;;;5097425;27;20513;-39
2021/12/21 10:40:54;;;;;;;36.50;30.40;;;;;;;;;;5112068;27;20027;-40
2021/12/21 10:43:20;;;;;;;52.85;34.55;;;;;;;;;;5113763;27;20034;-43
2021/12/21 10:45:45;;;;;;;28.92;22.70;;;;;;;;;;5113221;27;20020;-41
2021/12/21 10:48:18;;;;;;;26.83;21.02;;;;;;;;;;5115608;27;20046;-42
2021/12/21 10:50:45;;;;;;;38.40;22.20;;;;;;;;;;5109095;28;20432;-41
2021/12/21 10:53:15;;;;;;;60.35;27.98;;;;;;;;;;5109582;27;20425;-41
2021/12/21 10:55:41;;;;;;;32.10;20.95;;;;;;;;;;5112776;27;20027;-40
2021/12/21 10:58:08;;;;;;;82.68;60.47;;;;;;;;;;5109947;28;20709;-40
2021/12/21 11:00:35;;;;;;;103.25;85.20;;;;;;;;;;5093868;28;20038;-39
2021/12/21 11:03:01;;;;;;;106.20;89.63;;;;;;;;;;5114624;28;20019;-40
2021/12/21 11:05:26;;;;;;;112.95;100.07;;;;;;;;;;5110156;28;20814;-39
2021/12/21 11:08:14;;;;;;;110.43;94.22;;;;;;;;;;5112346;28;20477;-40
2021/12/21 11:10:41;;;;;;;104.00;81.00;;;;;;;;;;5110398;28;20074;-39
2021/12/21 11:13:08;;;;;;;87.22;73.30;;;;;;;;;;5112854;28;20035;-39
2021/12/21 11:15:43;;;;;;;200.02;83.00;;;;;;;;;;5111111;28;20029;-38
2021/12/21 11:18:10;;;;;;;82.70;66.00;;;;;;;;;;5110462;28;20082;-39
2021/12/21 11:20:37;;;;;;;88.13;72.85;;;;;;;;;;5110258;28;20046;-38
2021/12/21 11:23:03;;;;;;;91.13;71.88;;;;;;;;;;5109877;28;20031;-39
2021/12/21 11:25:29;;;;;;;67.10;41.55;;;;;;;;;;5111234;28;20114;-39
2021/12/21 11:27:55;;;;;;;29.25;18.20;;;;;;;;;;5112080;28;20516;-40
2021/12/21 11:30:21;;;;;;;33.33;25.33;;;;;;;;;;5091637;28;20032;-41
2021/12/21 11:32:49;;;;;;;27.40;18.40;;;;;;;;;;5116188;27;20059;-44
2021/12/21 11:37:45;;;;;;;29.88;25.60;;;;;;;;;;5112079;27;20034;-42
2021/12/21 11:40:12;;;;;;;17.63;13.15;;;;;;;;;;5114676;27;20061;-41
2021/12/21 11:42:40;;;;;;;18.08;16.20;;;;;;;;;;5094659;27;20098;-42
2021/12/21 11:45:14;;;;;;;15.73;11.48;;;;;;;;;;5116491;27;20042;-45
2021/12/21 11:47:40;;;;;;;30.77;13.80;;;;;;;;;;5115023;27;20082;-42
2021/12/21 11:50:08;;;;;;;24.75;13.77;;;;;;;;;;5115922;27;20046;-42
2021/12/21 11:52:50;;;;;;;23.90;12.65;;;;;;;;;;5115243;27;20572;-45
2021/12/21 11:55:16;;;;;;;16.95;11.13;;;;;;;;;;5114436;27;20094;-41
2021/12/21 11:57:41;;;;;;;40.25;15.65;;;;;;;;;;5116268;27;20025;-41
2021/12/21 12:00:14;;;;;;;47.15;18.67;;;;;;;;;;5121281;27;20019;-39
2021/12/21 12:02:41;;;;;;;48.78;22.85;;;;;;;;;;5118573;27;20023;-43
2021/12/21 12:05:15;;;;;;;25.60;11.45;;;;;;;;;;5121262;27;20026;-44
2021/12/21 12:07:41;;;;;;;47.10;20.98;;;;;;;;;;5118439;27;20021;-41
2021/12/21 12:10:08;;;;;;;33.40;13.30;;;;;;;;;;5116007;27;20027;-40
2021/12/21 12:12:34;;;;;;;83.20;22.83;;;;;;;;;;5114931;27;20107;-38
2021/12/21 12:15:00;;;;;;;38.92;17.65;;;;;;;;;;5113686;27;20431;-40
2021/12/21 12:17:26;;;;;;;18.75;8.73;;;;;;;;;;5113828;27;20075;-43
2021/12/21 12:19:53;;;;;;;12.27;10.10;;;;;;;;;;5116003;27;20054;-38
2021/12/21 12:22:19;;;;;;;14.43;7.90;;;;;;;;;;5119150;27;20022;-40
2021/12/21 12:24:54;;;;;;;14.65;7.30;;;;;;;;;;5119332;27;20019;-42
2021/12/21 12:27:21;;;;;;;11.68;7.13;;;;;;;;;;5119779;27;20011;-40
2021/12/21 12:29:57;;;;;;;20.15;11.15;;;;;;;;;;5121900;27;20015;-41
2021/12/21 12:32:31;;;;;;;11.27;6.53;;;;;;;;;;5121896;27;20015;-40
2021/12/21 12:34:57;;;;;;;27.08;9.93;;;;;;;;;;5122336;27;20022;-41
2021/12/21 12:37:24;;;;;;;20.25;15.68;;;;;;;;;;5120878;27;20059;-38
2021/12/21 12:39:51;;;;;;;19.90;12.65;;;;;;;;;;5118661;27;20123;-44
2021/12/21 12:42:21;;;;;;;28.67;12.07;;;;;;;;;;5118198;27;20023;-40
2021/12/21 12:44:49;;;;;;;64.80;17.40;;;;;;;;;;5116035;27;20099;-38
2021/12/21 12:47:15;;;;;;;27.00;10.80;;;;;;;;;;5118626;27;20488;-38
2021/12/21 12:49:50;;;;;;;51.90;17.70;;;;;;;;;;5116369;27;20119;-39
2021/12/21 12:52:24;;;;;;;70.20;20.60;;;;;;;;;;5115047;27;20019;-41
2021/12/21 12:54:52;;;;;;;53.60;19.92;;;;;;;;;;5115429;27;20054;-44
2021/12/21 12:57:38;;;;;;;27.67;14.52;;;;;;;;;;5115513;27;20019;-40
2021/12/21 13:00:09;;;;;;;20.58;14.73;;;;;;;;;;5116274;27;20536;-40
2021/12/21 13:02:35;;;;;;;27.15;17.83;;;;;;;;;;5119301;27;20050;-42
2021/12/21 13:05:09;;;;;;;22.25;13.57;;;;;;;;;;5113074;27;20480;-42
2021/12/21 13:07:35;;;;;;;18.95;9.60;;;;;;;;;;5117412;27;20027;-41
2021/12/21 13:10:05;;;;;;;9.43;8.55;;;;;;;;;;5116163;27;20481;-38
2021/12/21 13:12:30;;;;;;;28.63;16.95;;;;;;;;;;5114156;27;20075;-39
2021/12/21 13:14:56;;;;;;;75.45;52.28;;;;;;;;;;5116796;27;20015;-42
2021/12/21 13:17:21;;;;;;;89.65;75.20;;;;;;;;;;5116604;27;20702;-42
2021/12/21 13:19:46;;;;;;;93.05;69.75;;;;;;;;;;5115929;27;20024;-41
2021/12/21 13:22:11;;;;;;;101.00;68.25;;;;;;;;;;5116376;27;20015;-40
2021/12/21 13:24:42;;;;;;;80.90;51.83;;;;;;;;;;5115584;27;20410;-43
2021/12/21 13:27:11;;;;;;;25.52;20.08;;;;;;;;;;5119967;27;20039;-42
2021/12/21 13:29:37;;;;;;;99.85;29.20;;;;;;;;;;5117220;27;20039;-39
2021/12/21 13:32:05;;;;;;;16.63;12.30;;;;;;;;;;5118421;27;20811;-39
2021/12/21 13:34:30;;;;;;;17.65;13.02;;;;;;;;;;5116712;27;20099;-41
2021/12/21 13:37:02;;;;;;;68.28;23.98;;;;;;;;;;5114256;27;20110;-43
2021/12/21 13:39:33;;;;;;;129.95;35.28;;;;;;;;;;5114079;27;20231;-44
2021/12/21 13:41:58;;;;;;;50.45;19.25;;;;;;;;;;5116051;27;20039;-39
2021/12/21 13:44:25;;;;;;;58.28;24.55;;;;;;;;;;5110432;27;20431;-40
2021/12/21 13:46:50;;;;;;;41.47;24.70;;;;;;;;;;5118056;27;20022;-39
2021/12/21 13:49:16;;;;;;;25.73;22.98;;;;;;;;;;5116944;27;20024;-42
2021/12/21 13:51:52;;;;;;;18.77;16.80;;;;;;;;;;5115626;27;20023;-38
2021/12/21 13:54:18;;;;;;;21.65;12.73;;;;;;;;;;5115937;27;20049;-42
2021/12/21 13:56:44;;;;;;;35.75;13.25;;;;;;;;;;5116093;27;20027;-42
2021/12/21 13:59:10;;;;;;;27.23;15.15;;;;;;;;;;5116730;27;20031;-39
2021/12/21 14:01:36;;;;;;;16.17;11.25;;;;;;;;;;5115439;27;20049;-41
2021/12/21 14:04:04;;;;;;;24.50;13.27;;;;;;;;;;5114080;27;20106;-38
2021/12/21 14:06:30;;;;;;;24.25;15.55;;;;;;;;;;5112474;27;20030;-40
2021/12/21 14:08:57;;;;;;;17.10;15.07;;;;;;;;;;5116127;27;20015;-42
2021/12/21 14:11:27;;;;;;;33.70;14.43;;;;;;;;;;5114218;27;20100;-40
2021/12/21 14:13:53;;;;;;;27.95;15.02;;;;;;;;;;5116264;27;20699;-43
2021/12/21 14:16:20;;;;;;;27.58;16.50;;;;;;;;;;5116544;27;20470;-38
2021/12/21 14:18:46;;;;;;;52.05;16.90;;;;;;;;;;5112818;27;20067;-41
2021/12/21 14:21:16;;;;;;;21.38;14.00;;;;;;;;;;5115041;27;20051;-43
2021/12/21 14:23:43;;;;;;;44.22;16.50;;;;;;;;;;5113826;27;20125;-40
2021/12/21 14:26:10;;;;;;;21.88;13.38;;;;;;;;;;5114290;27;20711;-40
2021/12/21 14:28:49;;;;;;;22.40;10.57;;;;;;;;;;5114549;27;20062;-40
2021/12/21 14:31:15;;;;;;;14.05;11.40;;;;;;;;;;5113140;27;20150;-43
2021/12/21 14:33:49;;;;;;;31.17;15.15;;;;;;;;;;5116247;27;20031;-43
2021/12/21 14:36:15;;;;;;;17.42;12.13;;;;;;;;;;5114379;27;20035;-44
2021/12/21 14:38:53;;;;;;;51.22;19.35;;;;;;;;;;5115433;27;20094;-42
2021/12/21 14:41:38;;;;;;;34.63;17.63;;;;;;;;;;5114520;27;20015;-39
2021/12/21 14:44:11;;;;;;;17.23;13.32;;;;;;;;;;5116262;27;20027;-38
2021/12/21 14:46:57;;;;;;;20.90;15.45;;;;;;;;;;5115457;27;20046;-41
2021/12/21 14:49:23;;;;;;;32.90;15.07;;;;;;;;;;5116756;27;20027;-42
2021/12/21 14:51:50;;;;;;;16.67;13.43;;;;;;;;;;5114191;27;20027;-44
2021/12/21 14:54:23;;;;;;;29.30;15.63;;;;;;;;;;5094803;28;20392;-39
2021/12/21 14:56:49;;;;;;;22.45;15.15;;;;;;;;;;5112780;28;20074;-41
2021/12/21 14:59:14;;;;;;;21.50;16.00;;;;;;;;;;5114408;28;20058;-41
2021/12/21 15:01:47;;;;;;;32.22;18.83;;;;;;;;;;5117255;28;20529;-39
2021/12/21 15:04:13;;;;;;;17.73;15.75;;;;;;;;;;5117417;28;20030;-39
2021/12/21 15:06:39;;;;;;;27.27;14.13;;;;;;;;;;5115444;27;20355;-41
2021/12/21 15:09:04;;;;;;;19.52;15.98;;;;;;;;;;5115234;27;20486;-42
2021/12/21 15:11:30;;;;;;;20.95;16.05;;;;;;;;;;5120632;27;20035;-41
2021/12/21 15:13:56;;;;;;;37.15;14.65;;;;;;;;;;5116996;27;20023;-46
2021/12/21 15:16:21;;;;;;;19.40;13.40;;;;;;;;;;5116668;27;20032;-40
2021/12/21 15:18:46;;;;;;;15.57;13.05;;;;;;;;;;5122610;27;20050;-40
2021/12/21 15:21:11;;;;;;;18.17;12.43;;;;;;;;;;5117110;27;20093;-44
2021/12/21 15:23:37;;;;;;;24.65;14.00;;;;;;;;;;5118756;27;20471;-45
2021/12/21 15:26:02;;;;;;;27.50;17.40;;;;;;;;;;5117743;27;20102;-45
2021/12/21 15:28:27;;;;;;;20.23;16.60;;;;;;;;;;5116460;27;20046;-41
2021/12/21 15:30:53;;;;;;;29.98;22.45;;;;;;;;;;5113306;27;20626;-41
2021/12/21 15:33:18;;;;;;;30.00;21.92;;;;;;;;;;5121490;27;20019;-39
2021/12/21 15:35:43;;;;;;;21.30;18.08;;;;;;;;;;5121085;27;20104;-40
2021/12/21 15:38:11;;;;;;;27.52;15.35;;;;;;;;;;5115231;27;20728;-43